createdAt,value
2019-01-19T00:00:49.622Z,-1.54
2019-01-19T00:01:49.664Z,-1.58
2019-01-19T00:02:49.611Z,-1.54
2019-01-19T00:03:49.646Z,-1.59
2019-01-19T00:04:49.613Z,-1.59
2019-01-19T00:05:49.650Z,-1.59
2019-01-19T00:06:49.596Z,-1.61
2019-01-19T00:07:49.582Z,-1.58
2019-01-19T00:08:49.550Z,-1.68
2019-01-19T00:09:49.544Z,-1.69
2019-01-19T00:10:49.628Z,-1.56
2019-01-19T00:11:49.589Z,-1.69
2019-01-19T00:12:49.592Z,-1.58
2019-01-19T00:13:49.690Z,-1.58
2019-01-19T00:14:49.506Z,-1.72
2019-01-19T00:15:49.534Z,-1.64
2019-01-19T00:16:49.593Z,-1.71
2019-01-19T00:17:49.442Z,-1.66
2019-01-19T00:18:49.435Z,-1.64
2019-01-19T00:19:49.512Z,-1.61
2019-01-19T00:20:49.402Z,-1.74
2019-01-19T00:21:49.473Z,-1.77
2019-01-19T00:22:49.410Z,-1.74
2019-01-19T00:23:49.432Z,-1.72
2019-01-19T00:24:49.398Z,-1.84
2019-01-19T00:25:49.415Z,-1.76
2019-01-19T00:26:49.349Z,-1.77
2019-01-19T00:27:49.367Z,-1.82
2019-01-19T00:28:49.441Z,-1.83
2019-01-19T00:29:49.320Z,-1.79
2019-01-19T00:30:49.319Z,-1.74
2019-01-19T00:31:49.294Z,-1.74
2019-01-19T00:32:49.392Z,-1.77
2019-01-19T00:33:50.495Z,-1.86
2019-01-19T00:34:49.330Z,-1.80
2019-01-19T00:35:49.361Z,-1.89
2019-01-19T00:36:49.264Z,-1.83
2019-01-19T00:37:49.226Z,-1.80
2019-01-19T00:38:49.253Z,-1.86
2019-01-19T00:39:49.215Z,-1.80
2019-01-19T00:40:49.306Z,-1.87
2019-01-19T00:41:49.218Z,-1.86
2019-01-19T00:42:49.179Z,-1.84
2019-01-19T00:43:49.185Z,-1.87
2019-01-19T00:44:49.150Z,-1.83
2019-01-19T00:45:49.192Z,-1.84
2019-01-19T00:46:49.121Z,-1.83
2019-01-19T00:47:49.235Z,-1.80
2019-01-19T00:48:50.087Z,-1.95
2019-01-19T00:49:49.135Z,-1.90
2019-01-19T00:50:49.116Z,-1.90
2019-01-19T00:51:49.099Z,-1.87
2019-01-19T00:52:49.218Z,-1.90
2019-01-19T00:53:49.065Z,-1.92
2019-01-19T00:54:49.058Z,-1.86
2019-01-19T00:55:49.055Z,-1.87
2019-01-19T00:56:49.129Z,-1.87
2019-01-19T00:57:49.121Z,-1.92
2019-01-19T00:58:49.059Z,-1.98
2019-01-19T00:59:49.057Z,-2.01
2019-01-19T01:00:48.970Z,-1.90
2019-01-19T01:01:49.082Z,-1.89
2019-01-19T01:02:48.957Z,-1.87
2019-01-19T01:03:48.969Z,-1.95
2019-01-19T01:04:49.057Z,-1.95
2019-01-19T01:05:48.938Z,-1.95
2019-01-19T01:06:49.040Z,-1.90
2019-01-19T01:07:48.901Z,-1.95
2019-01-19T01:08:49.024Z,-1.90
2019-01-19T01:09:48.904Z,-1.89
2019-01-19T01:10:48.888Z,-1.89
2019-01-19T01:11:49.016Z,-1.97
2019-01-19T01:12:48.904Z,-1.89
2019-01-19T01:13:48.831Z,-1.90
2019-01-19T01:14:48.833Z,-1.95
2019-01-19T01:15:48.895Z,-1.84
2019-01-19T01:16:48.904Z,-1.87
2019-01-19T01:17:48.837Z,-1.89
2019-01-19T01:18:48.808Z,-1.83
2019-01-19T01:19:48.792Z,-1.87
2019-01-19T01:20:48.783Z,-1.83
2019-01-19T01:21:48.790Z,-1.80
2019-01-19T01:22:48.798Z,-1.92
2019-01-19T01:23:48.763Z,-1.82
2019-01-19T01:24:48.763Z,-1.89
2019-01-19T01:25:48.716Z,-1.84
2019-01-19T01:26:48.696Z,-1.87
2019-01-19T01:27:48.758Z,-1.82
2019-01-19T01:28:48.758Z,-1.83
2019-01-19T01:29:48.693Z,-1.83
2019-01-19T01:30:48.690Z,-1.83
2019-01-19T01:31:48.725Z,-1.89
2019-01-19T01:32:48.697Z,-1.87
2019-01-19T01:33:48.658Z,-1.84
2019-01-19T01:34:48.689Z,-1.92
2019-01-19T01:35:48.656Z,-1.92
2019-01-19T01:36:48.598Z,-1.90
2019-01-19T01:37:48.626Z,-1.87
2019-01-19T01:38:48.564Z,-1.90
2019-01-19T01:39:48.571Z,-1.87
2019-01-19T01:40:48.609Z,-1.92
2019-01-19T01:41:48.568Z,-1.89
2019-01-19T01:42:48.531Z,-1.92
2019-01-19T01:43:48.544Z,-2.00
2019-01-19T01:44:48.534Z,-1.98
2019-01-19T01:45:48.559Z,-1.84
2019-01-19T01:46:48.466Z,-1.95
2019-01-19T01:47:48.488Z,-2.02
2019-01-19T01:48:48.458Z,-1.90
2019-01-19T01:49:48.474Z,-1.89
2019-01-19T01:50:48.504Z,-1.95
2019-01-19T01:51:48.422Z,-1.95
2019-01-19T01:52:48.592Z,-2.02
2019-01-19T01:53:48.405Z,-2.07
2019-01-19T01:54:48.404Z,-2.04
2019-01-19T01:55:48.538Z,-2.05
2019-01-19T01:56:48.386Z,-2.00
2019-01-19T01:57:48.370Z,-2.08
2019-01-19T01:58:48.366Z,-2.07
2019-01-19T01:59:48.367Z,-2.10
2019-01-19T02:00:48.442Z,-2.08
2019-01-19T02:01:48.328Z,-2.08
2019-01-19T02:02:48.330Z,-2.22
2019-01-19T02:03:48.306Z,-2.21
2019-01-19T02:04:48.308Z,-2.16
2019-01-19T02:05:48.276Z,-2.15
2019-01-19T02:06:48.347Z,-2.18
2019-01-19T02:07:48.336Z,-2.28
2019-01-19T02:08:48.368Z,-2.26
2019-01-19T02:09:48.729Z,-2.26
2019-01-19T02:10:48.260Z,-2.25
2019-01-19T02:11:48.304Z,-2.22
2019-01-19T02:12:48.213Z,-2.30
2019-01-19T02:13:48.252Z,-2.28
2019-01-19T02:14:48.243Z,-2.34
2019-01-19T02:15:48.189Z,-2.35
2019-01-19T02:16:48.232Z,-2.32
2019-01-19T02:17:48.148Z,-2.37
2019-01-19T02:18:48.185Z,-2.30
2019-01-19T02:19:48.242Z,-2.34
2019-01-19T02:20:48.109Z,-2.37
2019-01-19T02:21:48.126Z,-2.25
2019-01-19T02:22:48.105Z,-2.37
2019-01-19T02:23:48.109Z,-2.37
2019-01-19T02:24:48.153Z,-2.30
2019-01-19T02:25:48.200Z,-2.25
2019-01-19T02:26:48.050Z,-2.34
2019-01-19T02:27:48.061Z,-2.26
2019-01-19T02:28:48.042Z,-2.34
2019-01-19T02:29:48.092Z,-2.34
2019-01-19T02:30:47.992Z,-2.30
2019-01-19T02:31:48.007Z,-2.35
2019-01-19T02:32:49.094Z,-2.30
2019-01-19T02:33:47.964Z,-2.34
2019-01-19T02:34:48.010Z,-2.37
2019-01-19T02:35:48.781Z,-2.38
2019-01-19T02:36:47.992Z,-2.28
2019-01-19T02:37:47.948Z,-2.34
2019-01-19T02:38:48.020Z,-2.37
2019-01-19T02:39:47.930Z,-2.34
2019-01-19T02:40:47.965Z,-2.34
2019-01-19T02:41:47.923Z,-2.41
2019-01-19T02:42:47.919Z,-2.40
2019-01-19T02:43:47.886Z,-2.38
2019-01-19T02:44:47.884Z,-2.34
2019-01-19T02:45:47.920Z,-2.42
2019-01-19T02:46:47.836Z,-2.37
2019-01-19T02:47:47.839Z,-2.40
2019-01-19T02:48:47.909Z,-2.34
2019-01-19T02:49:47.894Z,-2.38
2019-01-19T02:50:47.805Z,-2.38
2019-01-19T02:51:47.875Z,-2.38
2019-01-19T02:52:47.773Z,-2.41
2019-01-19T02:53:47.771Z,-2.40
2019-01-19T02:54:47.840Z,-2.30
2019-01-19T02:55:47.767Z,-2.40
2019-01-19T02:56:47.743Z,-2.30
2019-01-19T02:57:47.747Z,-2.41
2019-01-19T02:58:47.723Z,-2.47
2019-01-19T02:59:47.772Z,-2.41
2019-01-19T03:00:47.742Z,-2.48
2019-01-19T03:01:47.793Z,-2.41
2019-01-19T03:02:47.667Z,-2.40
2019-01-19T03:03:47.665Z,-2.45
2019-01-19T03:04:47.681Z,-2.44
2019-01-19T03:05:47.657Z,-2.48
2019-01-19T03:06:47.729Z,-2.52
2019-01-19T03:07:47.656Z,-2.40
2019-01-19T03:08:47.664Z,-2.34
2019-01-19T03:09:47.641Z,-2.47
2019-01-19T03:10:47.576Z,-2.41
2019-01-19T03:11:47.555Z,-2.41
2019-01-19T03:12:47.591Z,-2.44
2019-01-19T03:13:47.556Z,-2.45
2019-01-19T03:14:47.536Z,-2.53
2019-01-19T03:15:47.567Z,-2.55
2019-01-19T03:16:47.642Z,-2.58
2019-01-19T03:17:47.579Z,-2.52
2019-01-19T03:18:47.633Z,-2.59
2019-01-19T03:19:47.469Z,-2.56
2019-01-19T03:20:47.506Z,-2.58
2019-01-19T03:21:47.484Z,-2.60
2019-01-19T03:22:47.453Z,-2.55
2019-01-19T03:23:47.499Z,-2.63
2019-01-19T03:24:47.584Z,-2.50
2019-01-19T03:25:47.448Z,-2.55
2019-01-19T03:26:47.392Z,-2.56
2019-01-19T03:27:47.477Z,-2.50
2019-01-19T03:28:47.417Z,-2.50
2019-01-19T03:29:47.376Z,-2.55
2019-01-19T03:30:47.388Z,-2.58
2019-01-19T03:31:47.399Z,-2.59
2019-01-19T03:32:47.386Z,-2.62
2019-01-19T03:33:47.343Z,-2.62
2019-01-19T03:34:47.478Z,-2.63
2019-01-19T03:35:47.311Z,-2.70
2019-01-19T03:36:47.370Z,-2.70
2019-01-19T03:37:47.484Z,-2.66
2019-01-19T03:38:47.267Z,-2.66
2019-01-19T03:39:47.299Z,-2.70
2019-01-19T03:40:48.104Z,-2.60
2019-01-19T03:41:47.293Z,-2.60
2019-01-19T03:42:47.234Z,-2.70
2019-01-19T03:43:47.280Z,-2.74
2019-01-19T03:44:47.225Z,-2.71
2019-01-19T03:45:47.225Z,-2.76
2019-01-19T03:46:47.296Z,-2.74
2019-01-19T03:47:47.211Z,-2.77
2019-01-19T03:48:47.193Z,-2.76
2019-01-19T03:49:47.259Z,-2.77
2019-01-19T03:50:47.193Z,-2.70
2019-01-19T03:51:47.202Z,-2.70
2019-01-19T03:52:47.117Z,-2.71
2019-01-19T03:53:47.156Z,-2.70
2019-01-19T03:54:47.183Z,-2.73
2019-01-19T03:55:47.092Z,-2.78
2019-01-19T03:56:47.075Z,-2.77
2019-01-19T03:57:47.262Z,-2.73
2019-01-19T03:58:47.043Z,-2.73
2019-01-19T03:59:47.062Z,-2.78
2019-01-19T04:00:47.054Z,-2.77
2019-01-19T04:01:47.138Z,-2.74
2019-01-19T04:02:47.132Z,-2.76
2019-01-19T04:03:47.040Z,-2.74
2019-01-19T04:04:47.012Z,-2.71
2019-01-19T04:05:47.004Z,-2.74
2019-01-19T04:06:47.084Z,-2.77
2019-01-19T04:07:46.976Z,-2.76
2019-01-19T04:08:47.043Z,-2.77
2019-01-19T04:09:47.042Z,-2.77
2019-01-19T04:10:47.056Z,-2.77
2019-01-19T04:11:46.940Z,-2.73
2019-01-19T04:12:46.900Z,-2.69
2019-01-19T04:13:46.928Z,-2.71
2019-01-19T04:14:46.889Z,-2.78
2019-01-19T04:15:46.906Z,-2.78
2019-01-19T04:16:46.887Z,-2.76
2019-01-19T04:17:47.073Z,-2.71
2019-01-19T04:18:46.961Z,-2.80
2019-01-19T04:19:46.844Z,-2.84
2019-01-19T04:20:46.876Z,-2.84
2019-01-19T04:21:46.805Z,-2.89
2019-01-19T04:22:46.852Z,-2.91
2019-01-19T04:23:46.807Z,-2.89
2019-01-19T04:24:46.838Z,-2.91
2019-01-19T04:25:46.822Z,-2.89
2019-01-19T04:26:46.781Z,-2.83
2019-01-19T04:27:46.827Z,-2.91
2019-01-19T04:28:46.883Z,-2.86
2019-01-19T04:29:46.719Z,-2.88
2019-01-19T04:30:46.798Z,-2.91
2019-01-19T04:31:46.701Z,-2.92
2019-01-19T04:32:46.725Z,-2.83
2019-01-19T04:33:46.813Z,-2.86
2019-01-19T04:34:46.673Z,-2.86
2019-01-19T04:35:46.712Z,-2.89
2019-01-19T04:36:46.669Z,-2.95
2019-01-19T04:37:46.721Z,-2.83
2019-01-19T04:38:46.656Z,-2.83
2019-01-19T04:39:46.703Z,-2.97
2019-01-19T04:40:46.611Z,-2.94
2019-01-19T04:41:46.583Z,-2.86
2019-01-19T04:42:46.617Z,-2.92
2019-01-19T04:43:46.657Z,-2.98
2019-01-19T04:44:46.603Z,-2.99
2019-01-19T04:45:46.559Z,-2.99
2019-01-19T04:46:46.534Z,-2.98
2019-01-19T04:47:46.536Z,-2.95
2019-01-19T04:48:46.597Z,-2.97
2019-01-19T04:49:46.493Z,-2.92
2019-01-19T04:50:46.530Z,-2.95
2019-01-19T04:51:46.484Z,-2.89
2019-01-19T04:52:46.473Z,-2.84
2019-01-19T04:53:46.531Z,-2.89
2019-01-19T04:54:46.484Z,-2.88
2019-01-19T04:55:46.441Z,-2.94
2019-01-19T04:56:46.473Z,-3.02
2019-01-19T04:57:46.618Z,-2.88
2019-01-19T04:58:46.448Z,-2.86
2019-01-19T04:59:46.397Z,-2.84
2019-01-19T05:00:46.499Z,-2.86
2019-01-19T05:01:46.389Z,-2.86
2019-01-19T05:02:46.421Z,-2.83
2019-01-19T05:03:46.368Z,-2.84
2019-01-19T05:04:46.396Z,-2.86
2019-01-19T05:05:46.325Z,-2.89
2019-01-19T05:06:46.345Z,-2.88
2019-01-19T05:07:46.309Z,-2.83
2019-01-19T05:08:46.351Z,-2.95
2019-01-19T05:09:46.403Z,-2.98
2019-01-19T05:10:46.280Z,-2.89
2019-01-19T05:11:46.265Z,-2.95
2019-01-19T05:12:46.295Z,-2.83
2019-01-19T05:13:46.333Z,-2.91
2019-01-19T05:14:46.322Z,-2.89
2019-01-19T05:15:46.230Z,-2.88
2019-01-19T05:16:46.275Z,-2.88
2019-01-19T05:17:46.239Z,-2.95
2019-01-19T05:18:46.183Z,-2.86
2019-01-19T05:19:46.311Z,-2.89
2019-01-19T05:20:46.159Z,-2.91
2019-01-19T05:21:46.229Z,-2.83
2019-01-19T05:22:46.177Z,-2.84
2019-01-19T05:23:46.139Z,-2.91
2019-01-19T05:24:46.138Z,-2.89
2019-01-19T05:25:46.131Z,-2.84
2019-01-19T05:26:46.158Z,-2.95
2019-01-19T05:27:46.118Z,-2.80
2019-01-19T05:28:46.157Z,-2.84
2019-01-19T05:29:46.078Z,-2.95
2019-01-19T05:30:46.130Z,-2.84
2019-01-19T05:31:46.039Z,-2.83
2019-01-19T05:32:46.103Z,-2.84
2019-01-19T05:33:46.032Z,-2.94
2019-01-19T05:34:46.039Z,-2.99
2019-01-19T05:35:46.042Z,-2.86
2019-01-19T05:36:46.077Z,-3.02
2019-01-19T05:37:46.024Z,-2.99
2019-01-19T05:38:45.988Z,-2.98
2019-01-19T05:39:46.009Z,-2.86
2019-01-19T05:40:46.614Z,-2.84
2019-01-19T05:41:45.938Z,-2.84
2019-01-19T05:42:45.939Z,-2.83
2019-01-19T05:43:46.106Z,-2.86
2019-01-19T05:44:45.924Z,-2.89
2019-01-19T05:45:45.919Z,-2.92
2019-01-19T05:46:46.023Z,-2.94
2019-01-19T05:47:45.893Z,-2.97
2019-01-19T05:48:45.931Z,-2.92
2019-01-19T05:49:45.912Z,-2.91
2019-01-19T05:50:45.874Z,-2.92
2019-01-19T05:51:45.856Z,-2.78
2019-01-19T05:52:45.848Z,-2.83
2019-01-19T05:53:45.900Z,-2.86
2019-01-19T05:54:45.816Z,-2.84
2019-01-19T05:55:45.928Z,-2.86
2019-01-19T05:56:45.776Z,-2.97
2019-01-19T05:57:45.778Z,-2.92
2019-01-19T05:58:45.781Z,-2.98
2019-01-19T05:59:45.894Z,-2.81
2019-01-19T06:00:45.815Z,-3.01
2019-01-19T06:01:45.735Z,-2.95
2019-01-19T06:02:45.731Z,-3.01
2019-01-19T06:03:45.693Z,-3.01
2019-01-19T06:04:45.707Z,-2.98
2019-01-19T06:05:45.727Z,-2.94
2019-01-19T06:06:46.833Z,-3.02
2019-01-19T06:07:46.029Z,-2.88
2019-01-19T06:08:45.650Z,-2.99
2019-01-19T06:09:45.663Z,-3.01
2019-01-19T06:10:45.790Z,-2.95
2019-01-19T06:11:45.659Z,-3.01
2019-01-19T06:12:45.602Z,-2.92
2019-01-19T06:13:45.617Z,-2.88
2019-01-19T06:14:45.685Z,-2.88
2019-01-19T06:15:45.572Z,-2.86
2019-01-19T06:16:45.578Z,-2.84
2019-01-19T06:17:45.572Z,-2.95
2019-01-19T06:18:45.554Z,-2.84
2019-01-19T06:19:45.608Z,-2.86
2019-01-19T06:20:45.522Z,-2.88
2019-01-19T06:21:45.534Z,-2.98
2019-01-19T06:22:45.580Z,-2.95
2019-01-19T06:23:45.680Z,-2.94
2019-01-19T06:24:45.565Z,-3.02
2019-01-19T06:25:45.465Z,-2.92
2019-01-19T06:26:45.552Z,-2.94
2019-01-19T06:27:45.484Z,-3.02
2019-01-19T06:28:45.470Z,-3.01
2019-01-19T06:29:45.504Z,-3.01
2019-01-19T06:30:45.476Z,-3.06
2019-01-19T06:31:45.398Z,-2.97
2019-01-19T06:32:45.386Z,-2.89
2019-01-19T06:33:45.401Z,-3.02
2019-01-19T06:34:45.424Z,-3.02
2019-01-19T06:35:45.388Z,-3.01
2019-01-19T06:36:45.354Z,-2.94
2019-01-19T06:37:45.342Z,-2.99
2019-01-19T06:38:45.348Z,-2.97
2019-01-19T06:39:45.449Z,-2.94
2019-01-19T06:40:45.349Z,-2.95
2019-01-19T06:41:45.301Z,-2.88
2019-01-19T06:42:45.487Z,-2.92
2019-01-19T06:43:45.279Z,-2.83
2019-01-19T06:44:46.651Z,-2.95
2019-01-19T06:45:45.307Z,-2.88
2019-01-19T06:46:45.242Z,-2.98
2019-01-19T06:47:45.226Z,-2.95
2019-01-19T06:48:45.282Z,-3.01
2019-01-19T06:49:45.222Z,-2.94
2019-01-19T06:50:45.261Z,-3.04
2019-01-19T06:51:45.201Z,-2.89
2019-01-19T06:52:45.288Z,-2.89
2019-01-19T06:53:45.209Z,-3.01
2019-01-19T06:54:45.205Z,-2.99
2019-01-19T06:55:45.143Z,-2.97
2019-01-19T06:56:45.163Z,-3.07
2019-01-19T06:57:45.126Z,-3.09
2019-01-19T06:58:45.117Z,-3.01
2019-01-19T06:59:45.165Z,-3.01
2019-01-19T07:00:45.108Z,-2.98
2019-01-19T07:01:45.104Z,-3.07
2019-01-19T07:02:45.075Z,-3.10
2019-01-19T07:03:45.235Z,-3.09
2019-01-19T07:04:45.117Z,-3.10
2019-01-19T07:05:45.085Z,-3.01
2019-01-19T07:06:45.164Z,-3.09
2019-01-19T07:07:45.003Z,-3.07
2019-01-19T07:08:45.005Z,-3.02
2019-01-19T07:09:44.977Z,-2.98
2019-01-19T07:10:56.724Z,-3.06
2019-01-19T07:11:44.986Z,-3.06
2019-01-19T07:12:44.942Z,-3.02
2019-01-19T07:13:44.951Z,-2.91
2019-01-19T07:14:44.921Z,-3.02
2019-01-19T07:15:44.956Z,-2.95
2019-01-19T07:16:45.070Z,-2.99
2019-01-19T07:17:44.949Z,-2.99
2019-01-19T07:18:44.952Z,-2.91
2019-01-19T07:19:44.941Z,-2.95
2019-01-19T07:20:44.915Z,-2.95
2019-01-19T07:21:44.990Z,-3.04
2019-01-19T07:22:44.937Z,-2.91
2019-01-19T07:23:44.879Z,-3.02
2019-01-19T07:24:44.862Z,-3.04
2019-01-19T07:25:45.642Z,-3.02
2019-01-19T07:26:44.955Z,-3.06
2019-01-19T07:27:44.838Z,-3.09
2019-01-19T07:28:44.874Z,-3.02
2019-01-19T07:29:44.817Z,-2.98
2019-01-19T07:30:44.812Z,-2.99
2019-01-19T07:31:44.895Z,-2.91
2019-01-19T07:32:44.786Z,-2.95
2019-01-19T07:33:44.756Z,-3.04
2019-01-19T07:34:44.784Z,-3.04
2019-01-19T07:35:44.733Z,-2.98
2019-01-19T07:36:44.818Z,-3.07
2019-01-19T07:37:44.758Z,-2.99
2019-01-19T07:38:44.735Z,-3.04
2019-01-19T07:39:44.708Z,-2.94
2019-01-19T07:40:44.697Z,-2.95
2019-01-19T07:41:44.758Z,-2.97
2019-01-19T07:42:44.657Z,-2.89
2019-01-19T07:43:44.650Z,-2.86
2019-01-19T07:44:44.653Z,-2.98
2019-01-19T07:45:44.645Z,-2.92
2019-01-19T07:46:44.792Z,-2.86
2019-01-19T07:47:44.613Z,-2.92
2019-01-19T07:48:44.620Z,-2.95
2019-01-19T07:49:44.645Z,-2.83
2019-01-19T07:50:44.589Z,-2.88
2019-01-19T07:51:44.698Z,-2.92
2019-01-19T07:52:44.643Z,-2.83
2019-01-19T07:53:44.564Z,-2.73
2019-01-19T07:54:44.595Z,-2.89
2019-01-19T07:55:44.514Z,-2.86
2019-01-19T07:56:44.602Z,-2.80
2019-01-19T07:57:44.532Z,-2.74
2019-01-19T07:58:44.493Z,-2.80
2019-01-19T07:59:44.462Z,-2.71
2019-01-19T08:00:44.470Z,-2.74
2019-01-19T08:01:44.518Z,-2.77
2019-01-19T08:02:44.525Z,-2.77
2019-01-19T08:03:44.461Z,-2.66
2019-01-19T08:04:44.424Z,-2.73
2019-01-19T08:05:44.481Z,-2.74
2019-01-19T08:06:44.485Z,-2.70
2019-01-19T08:07:44.398Z,-2.65
2019-01-19T08:08:44.371Z,-2.59
2019-01-19T08:09:44.372Z,-2.62
2019-01-19T08:10:44.353Z,-2.56
2019-01-19T08:11:44.428Z,-2.59
2019-01-19T08:12:44.341Z,-2.56
2019-01-19T08:13:44.332Z,-2.50
2019-01-19T08:14:44.324Z,-2.50
2019-01-19T08:15:44.296Z,-2.38
2019-01-19T08:16:44.364Z,-2.38
2019-01-19T08:17:44.284Z,-2.30
2019-01-19T08:18:44.384Z,-2.32
2019-01-19T08:19:44.274Z,-2.37
2019-01-19T08:20:44.297Z,-2.38
2019-01-19T08:21:44.301Z,-2.34
2019-01-19T08:22:44.291Z,-2.25
2019-01-19T08:23:44.256Z,-2.30
2019-01-19T08:24:44.351Z,-2.19
2019-01-19T08:25:44.208Z,-2.32
2019-01-19T08:26:44.182Z,-2.25
2019-01-19T08:27:44.245Z,-2.32
2019-01-19T08:28:44.190Z,-2.28
2019-01-19T08:29:44.203Z,-2.23
2019-01-19T08:30:44.144Z,-2.21
2019-01-19T08:31:44.112Z,-2.21
2019-01-19T08:32:44.239Z,-2.16
2019-01-19T08:33:44.133Z,-2.08
2019-01-19T08:34:44.082Z,-2.12
2019-01-19T08:35:44.091Z,-2.13
2019-01-19T08:36:44.050Z,-1.98
2019-01-19T08:37:44.108Z,-2.00
2019-01-19T08:38:44.043Z,-1.98
2019-01-19T08:39:44.050Z,-1.92
2019-01-19T08:40:44.024Z,-1.95
2019-01-19T08:41:43.996Z,-1.98
2019-01-19T08:42:44.248Z,-1.90
2019-01-19T08:43:44.012Z,-1.89
2019-01-19T08:44:43.978Z,-1.79
2019-01-19T08:45:44.022Z,-1.69
2019-01-19T08:46:43.954Z,-1.83
2019-01-19T08:47:44.003Z,-1.77
2019-01-19T08:48:43.923Z,-1.76
2019-01-19T08:49:43.938Z,-1.62
2019-01-19T08:50:43.985Z,-1.64
2019-01-19T08:51:44.642Z,-1.66
2019-01-19T08:52:43.942Z,-1.61
2019-01-19T08:53:44.645Z,-1.54
2019-01-19T08:54:43.842Z,-1.56
2019-01-19T08:55:43.853Z,-1.50
2019-01-19T08:56:43.853Z,-1.54
2019-01-19T08:57:44.648Z,-1.54
2019-01-19T08:58:43.947Z,-1.41
2019-01-19T08:59:43.810Z,-1.40
2019-01-19T09:00:43.841Z,-1.40
2019-01-19T09:01:43.768Z,-1.29
2019-01-19T09:02:43.821Z,-1.27
2019-01-19T09:03:43.773Z,-1.30
2019-01-19T09:04:43.848Z,-1.22
2019-01-19T09:05:44.646Z,-1.25
2019-01-19T09:06:43.833Z,-1.14
2019-01-19T09:07:43.731Z,-1.08
2019-01-19T09:08:43.728Z,-1.08
2019-01-19T09:09:43.704Z,-1.01
2019-01-19T09:10:43.733Z,-1.07
2019-01-19T09:11:43.700Z,-1.02
2019-01-19T09:12:43.746Z,-0.91
2019-01-19T09:13:43.650Z,-0.89
2019-01-19T09:14:43.652Z,-0.89
2019-01-19T09:15:43.637Z,-0.82
2019-01-19T09:16:43.641Z,-0.75
2019-01-19T09:17:43.700Z,-0.67
2019-01-19T09:18:43.620Z,-0.61
2019-01-19T09:19:43.610Z,-0.59
2019-01-19T09:20:43.590Z,-0.56
2019-01-19T09:21:43.608Z,-0.50
2019-01-19T09:22:43.866Z,-0.46
2019-01-19T09:23:43.595Z,-0.52
2019-01-19T09:24:43.545Z,-0.32
2019-01-19T09:25:43.711Z,-0.41
2019-01-19T09:26:43.536Z,-0.36
2019-01-19T09:27:43.569Z,-0.20
2019-01-19T09:28:43.525Z,-0.28
2019-01-19T09:29:43.496Z,-0.15
2019-01-19T09:30:43.496Z,-0.13
2019-01-19T09:31:44.804Z,-0.02
2019-01-19T09:32:43.512Z,0.00
2019-01-19T09:33:43.457Z,0.08
2019-01-19T09:34:43.449Z,0.10
2019-01-19T09:35:43.432Z,0.16
2019-01-19T09:36:43.438Z,0.25
2019-01-19T09:37:43.406Z,0.37
2019-01-19T09:38:43.586Z,0.26
2019-01-19T09:39:43.372Z,0.43
2019-01-19T09:40:43.375Z,0.41
2019-01-19T09:41:43.509Z,0.49
2019-01-19T09:42:43.401Z,0.46
2019-01-19T09:43:43.371Z,0.46
2019-01-19T09:44:43.310Z,0.56
2019-01-19T09:45:43.332Z,0.62
2019-01-19T09:46:43.341Z,0.66
2019-01-19T09:47:43.288Z,0.68
2019-01-19T09:48:43.319Z,0.74
2019-01-19T09:49:43.287Z,0.76
2019-01-19T09:50:43.300Z,0.84
2019-01-19T09:51:43.288Z,0.77
2019-01-19T09:52:43.219Z,0.87
2019-01-19T09:53:43.303Z,0.92
2019-01-19T09:54:43.432Z,0.98
2019-01-19T09:55:43.193Z,0.99
2019-01-19T09:56:43.220Z,0.99
2019-01-19T09:57:43.244Z,1.06
2019-01-19T09:58:43.214Z,1.02
2019-01-19T09:59:43.156Z,1.05
2019-01-19T10:00:45.723Z,1.20
2019-01-19T10:01:43.158Z,1.16
2019-01-19T10:02:43.142Z,1.16
2019-01-19T10:03:43.198Z,1.23
2019-01-19T10:04:43.113Z,1.35
2019-01-19T10:05:43.115Z,1.34
2019-01-19T10:06:43.076Z,1.35
2019-01-19T10:07:48.444Z,1.41
2019-01-19T10:08:44.132Z,1.44
2019-01-19T10:09:43.037Z,1.53
2019-01-19T10:10:43.042Z,1.56
2019-01-19T10:11:43.008Z,1.49
2019-01-19T10:12:43.102Z,1.52
2019-01-19T10:13:43.098Z,1.63
2019-01-19T10:14:43.016Z,1.56
2019-01-19T10:15:43.027Z,1.59
2019-01-19T10:16:43.043Z,1.60
2019-01-19T10:17:42.966Z,1.63
2019-01-19T10:18:43.106Z,1.78
2019-01-19T10:19:42.956Z,1.85
2019-01-19T10:20:42.937Z,1.85
2019-01-19T10:21:43.653Z,2.00
2019-01-19T10:22:42.928Z,2.04
2019-01-19T10:23:43.006Z,1.97
2019-01-19T10:24:42.882Z,2.00
2019-01-19T10:25:43.793Z,2.11
2019-01-19T10:26:42.900Z,2.10
2019-01-19T10:27:42.855Z,2.13
2019-01-19T10:28:42.915Z,2.08
2019-01-19T10:29:42.816Z,2.13
2019-01-19T10:30:42.823Z,2.08
2019-01-19T10:31:42.825Z,2.07
2019-01-19T10:32:42.789Z,2.08
2019-01-19T10:33:42.908Z,2.18
2019-01-19T10:34:42.844Z,2.20
2019-01-19T10:35:42.749Z,2.15
2019-01-19T10:36:42.743Z,2.15
2019-01-19T10:37:42.806Z,2.26
2019-01-19T10:38:42.701Z,2.29
2019-01-19T10:39:42.799Z,2.31
2019-01-19T10:40:42.761Z,2.36
2019-01-19T10:41:42.724Z,2.39
2019-01-19T10:42:43.656Z,2.33
2019-01-19T10:43:42.712Z,2.31
2019-01-19T10:44:42.803Z,2.35
2019-01-19T10:45:42.655Z,2.29
2019-01-19T10:46:42.637Z,2.35
2019-01-19T10:47:42.638Z,2.33
2019-01-19T10:48:42.622Z,2.33
2019-01-19T10:49:42.698Z,2.35
2019-01-19T10:50:42.625Z,2.26
2019-01-19T10:51:42.619Z,2.44
2019-01-19T10:52:42.596Z,2.38
2019-01-19T10:53:43.159Z,2.46
2019-01-19T10:54:42.643Z,2.39
2019-01-19T10:55:42.524Z,2.32
2019-01-19T10:56:42.522Z,2.43
2019-01-19T10:57:42.527Z,2.43
2019-01-19T10:58:42.504Z,2.39
2019-01-19T10:59:42.574Z,2.49
2019-01-19T11:00:42.546Z,2.43
2019-01-19T11:01:42.591Z,2.46
2019-01-19T11:02:42.470Z,2.39
2019-01-19T11:03:42.433Z,2.49
2019-01-19T11:04:42.573Z,2.60
2019-01-19T11:05:42.467Z,2.53
2019-01-19T11:06:42.463Z,2.51
2019-01-19T11:07:42.424Z,2.57
2019-01-19T11:08:42.422Z,2.47
2019-01-19T11:09:42.461Z,2.60
2019-01-19T11:10:42.414Z,2.57
2019-01-19T11:11:42.421Z,2.57
2019-01-19T11:12:42.358Z,2.60
2019-01-19T11:13:42.357Z,2.56
2019-01-19T11:14:42.523Z,2.56
2019-01-19T11:15:42.333Z,2.57
2019-01-19T11:16:42.315Z,2.65
2019-01-19T11:17:42.432Z,2.53
2019-01-19T11:18:42.315Z,2.56
2019-01-19T11:19:42.324Z,2.62
2019-01-19T11:20:42.321Z,2.71
2019-01-19T11:21:42.266Z,2.65
2019-01-19T11:22:42.352Z,2.61
2019-01-19T11:23:42.226Z,2.71
2019-01-19T11:24:42.221Z,2.79
2019-01-19T11:25:42.198Z,2.74
2019-01-19T11:26:42.270Z,2.74
2019-01-19T11:27:42.202Z,2.74
2019-01-19T11:28:42.330Z,2.74
2019-01-19T11:29:42.196Z,2.69
2019-01-19T11:30:42.166Z,2.69
2019-01-19T11:31:42.175Z,2.74
2019-01-19T11:32:44.487Z,2.77
2019-01-19T11:33:42.200Z,2.86
2019-01-19T11:34:42.111Z,2.71
2019-01-19T11:35:42.102Z,2.82
2019-01-19T11:36:42.087Z,2.83
2019-01-19T11:37:42.116Z,2.83
2019-01-19T11:38:42.080Z,2.95
2019-01-19T11:39:42.209Z,3.04
2019-01-19T11:40:42.042Z,3.00
2019-01-19T11:41:42.215Z,3.11
2019-01-19T11:42:42.033Z,3.18
2019-01-19T11:43:42.027Z,3.28
2019-01-19T11:44:42.064Z,3.26
2019-01-19T11:45:42.061Z,3.37
2019-01-19T11:46:41.978Z,3.42
2019-01-19T11:47:42.005Z,3.25
2019-01-19T11:48:41.959Z,3.28
2019-01-19T11:49:41.944Z,3.29
2019-01-19T11:50:42.051Z,3.29
2019-01-19T11:51:41.980Z,3.29
2019-01-19T11:52:41.946Z,3.26
2019-01-19T11:53:41.948Z,3.28
2019-01-19T11:54:41.905Z,3.21
2019-01-19T11:55:41.942Z,3.18
2019-01-19T11:56:41.948Z,3.11
2019-01-19T11:57:41.902Z,3.07
2019-01-19T11:58:41.838Z,3.16
2019-01-19T11:59:41.919Z,3.14
2019-01-19T12:00:41.994Z,3.19
2019-01-19T12:01:41.816Z,3.03
2019-01-19T12:02:41.828Z,3.16
2019-01-19T12:03:41.857Z,3.16
2019-01-19T12:04:41.800Z,3.32
2019-01-19T12:05:41.767Z,3.19
2019-01-19T12:06:41.753Z,3.14
2019-01-19T12:07:41.746Z,3.18
2019-01-19T12:08:41.823Z,3.28
2019-01-19T12:09:41.731Z,3.31
2019-01-19T12:10:41.723Z,3.23
2019-01-19T12:11:42.664Z,3.29
2019-01-19T12:12:41.697Z,3.23
2019-01-19T12:13:41.930Z,3.23
2019-01-19T12:14:41.779Z,3.32
2019-01-19T12:15:41.688Z,3.28
2019-01-19T12:16:41.734Z,3.29
2019-01-19T12:17:41.629Z,3.36
2019-01-19T12:18:41.715Z,3.41
2019-01-19T12:19:41.628Z,3.45
2019-01-19T12:20:41.678Z,3.48
2019-01-19T12:21:41.577Z,3.47
2019-01-19T12:22:41.571Z,3.50
2019-01-19T12:23:41.610Z,3.50
2019-01-19T12:24:41.614Z,3.50
2019-01-19T12:25:41.548Z,3.56
2019-01-19T12:26:41.558Z,3.60
2019-01-19T12:27:41.512Z,3.59
2019-01-19T12:28:41.517Z,3.69
2019-01-19T12:29:41.508Z,3.77
2019-01-19T12:30:41.549Z,4.04
2019-01-19T12:31:41.493Z,4.04
2019-01-19T12:32:41.507Z,4.06
2019-01-19T12:33:41.556Z,4.13
2019-01-19T12:34:41.506Z,4.10
2019-01-19T12:35:41.447Z,4.17
2019-01-19T12:36:41.459Z,4.06
2019-01-19T12:37:41.489Z,4.04
2019-01-19T12:38:41.490Z,4.08
2019-01-19T12:39:41.395Z,4.02
2019-01-19T12:40:41.507Z,4.08
2019-01-19T12:41:41.408Z,4.01
2019-01-19T12:42:41.370Z,4.08
2019-01-19T12:43:41.414Z,4.05
2019-01-19T12:44:41.354Z,4.12
2019-01-19T12:45:41.332Z,4.08
2019-01-19T12:46:41.322Z,4.13
2019-01-19T12:47:41.340Z,4.14
2019-01-19T12:48:41.420Z,4.13
2019-01-19T12:49:41.311Z,4.13
2019-01-19T12:50:41.285Z,4.16
2019-01-19T12:51:41.262Z,4.19
2019-01-19T12:52:41.242Z,4.17
2019-01-19T12:53:41.349Z,4.23
2019-01-19T12:54:41.292Z,4.19
2019-01-19T12:55:41.230Z,4.17
2019-01-19T12:56:41.273Z,4.26
2019-01-19T12:57:41.222Z,4.22
2019-01-19T12:58:41.259Z,4.19
2019-01-19T12:59:41.203Z,4.24